Airfield :







YOU CAN JOIN US ON...

 
LOGIN :

Register | Disclaimer

   EN    FR    IT 

 









Legend :    VFR   Marginal VFR   IFR   Intensive IFR   Very Intensive IFR
Visi :
Ceiling :
>= 8 km
>= 3000ft
5 to 8 km
1000 to 3000 ft
1500m to 5 km
500 to 1000 ft
800 to 1500m
200 to 500 ft
< 800m
< 200 ft
Symbols :   Thunderstorms  Fog  Heavy snow  Heavy precipitations  Wind > 20 kt






- Airport Elevation : 84 ft
- IATA code : YJT


CYJT - Stephenville

CURRENT METAR :
  • 190200Z 06007KT 15SM SCT200 02/M04 A3002 RMK CI4 SLP167

EXPIRED METARs :
  • 190100Z 05005KT 15SM BKN190 01/M04 A3008 RMK CI5 SLP188
  • 190000Z 05004KT 15SM BKN200 01/M03 A3010 RMK CI5 SLP196

TAF TAF CYJT
Valid from the 19 at 00:00 until the 20 at 00:00 UTC


182339Z 1900/1924 04008KT P6SM BKN150
BECMG 1902/1904 07012G22KT
FM190600 07015G25KT 6SM -RA BR SCT020 OVC080
FM190900 07022G38KT 3SM -RA BR SCT015 OVC040
PROB30 1909/1911 3SM -FZRA BR
FM191100 07022G38KT 3SM -RA BR OVC015
FM191700 06015G25KT 2SM -DZ BR OVC012
FM192000 06012KT 6SM -DZ BR OVC012 RMK NXT FCST BY 190600Z



MET'MAP, your aeronautical weather chart ! - Copyright ORBIFLY December 2007 - Disclaimer

ORBIFLY MET'MAP TEAM :

Programming & Development : Alexandra Zaïnal
Concept & Development : Baudouin d'Aumeries
Co-Development & Prog : Marc-Olivier Méhu
Technical & hardware support : Manuel Goepfert

Contact : metmap@orbifly.com




SOURCES & CREDITS :

   NOAA